Kailua, HI (96734)

1:25 AM HST on August 05, 2015 (GMT -1000)
Kailua Beach | | Change Station
CLOSE
Current Station
Personal Weather Station
Location: Kailua, HI
Elevation: 10 ft
Nearby Weather Stations
Active Advisory: High Surf Advisory

Elev 10 ft 21.40 °N, 157.73 °W | Updated 59 seconds ago

Mostly Cloudy
Mostly Cloudy
79.5 °F
Feels Like 84 °F
N
2.0
Wind Variable Wind from East
Gusts 4.0 mph

Today
High -- | Low -- °F
--% Chance of Precip.
Yesterday
High -- | Low -- °F
Precip. -- in
6:05 AM 7:07 PM
Waning Gibbous, 68% visible
Pressure 29.87 in
Visibility -9999.0 miles
Clouds Few 2000 ft
Scattered Clouds 2600 ft
Mostly Cloudy 3900 ft
Heat Index 84 °F
Dew Point 76 °F
Humidity 90%
Rainfall 0.00 in
Snow Depth Not available.
UV 0 out of 12
Pollen Not available.
Air Quality Not available.
Flu Activity Not available.
METAR PHNG 051057Z AUTO 07010G15KT FEW020 SCT026 BKN039 26/23 A2988 RMK AO2 SLP113 T02610233 PWINO $

More Conditions Fewer Conditions

Pressure 29.87 in
Visibility -9999.0 miles
Clouds Few 2000 ft
Scattered Clouds 2600 ft
Mostly Cloudy 3900 ft
Heat Index 84 °F
Dew Point 76 °F
Humidity 90%
Rainfall 0.00 in
Snow Depth Not available.
UV 0 out of 12
Pollen Not available.
Air Quality Not available.
Flu Activity Not available.
METAR PHNG 051057Z AUTO 07010G15KT FEW020 SCT026 BKN039 26/23 A2988 RMK AO2 SLP113 T02610233 PWINO $

More Conditions Fewer Conditions

10-Day Weather Forecast

×

Almanac

Astronomy

Aug. 05, 2015 Rise Set
Actual Time
Civil Twilight
Nautical Twilight
Astronomical Twilight
Moon
Length of Visible Light
Length of Day
Tomorrow will be .
, % of the Moon is Illuminated

Today's Extremes

State Highs State Lows

Community

WunderPhotos

Upload Photos

1,844,133 photos uploaded!

WunderBlogs® & News

Nearby

Air Quality

  Air Quality AQ Index Pollutant
Not available.

Snow Depth

Station Depth Elevation

Earthquake Activity

City Distance Mag. Time & Date
Minimum magnitude displayed is 2.5.

Coastal Water Temperatures

Place Temperature

Stations

Nearby Weather Stations

Station Location Temp. Windchill Dew Point Humidity Wind Precip. Elev Updated Type
                   
High Surf Advisory
Statement as of 3:30 PM HST on August 04, 2015

... High surf advisory remains in effect from midnight tonight to
noon HST Thursday...

A high surf advisory remains in effect from midnight tonight to
noon HST Thursday.

* Surf... up to 5 feet through the evening... increasing to 6 to
10 feet late tonight and Wednesday... .then declining Thursday.

* Timing... building late tonight... peaking late Wednesday... then
declining Thursday.

* Impacts... moderate... expect strong breaking waves... shore
break... and strong currents making swimming dangerous.

Precautionary/preparedness actions... heed all advice from ocean
safety officials and exercise caution. Boaters should expect
surfers using Harbor channels to reach surf breaks.


Donaldson